Time;durP1;ratioP1;P1;durP2;ratioP2;P2;SDS_P1;SDS_P2;PMS_P1;PMS_P2;Temp;Humidity;BMP_temperature;BMP_pressure;BME280_temperature;BME280_humidity;BME280_pressure;Samples;Min_cycle;Max_cycle;Signal;HPM_P1;HPM_P2
2023/08/09 00:01:03;;;;;;;4.53;2.30;;;;;;;;;;781889;176;917100;-62
2023/08/09 00:03:29;;;;;;;5.23;2.60;;;;;;;;;;780839;176;920493;-61
2023/08/09 00:05:55;;;;;;;5.30;2.40;;;;;;;;;;787145;176;920918;-61
2023/08/09 00:08:21;;;;;;;4.47;2.83;;;;;;;;;;781251;178;918625;-64
2023/08/09 00:10:46;;;;;;;4.23;2.17;;;;;;;;;;772163;180;918621;-64
2023/08/09 00:13:12;;;;;;;4.30;2.50;;;;;;;;;;780841;177;918448;-64
2023/08/09 00:15:38;;;;;;;3.70;2.23;;;;;;;;;;786635;176;919478;-60
2023/08/09 00:18:04;;;;;;;5.63;2.57;;;;;;;;;;780368;176;919378;-64
2023/08/09 00:20:30;;;;;;;4.40;2.80;;;;;;;;;;782705;176;916207;-63
2023/08/09 00:22:56;;;;;;;4.90;2.97;;;;;;;;;;786813;176;918341;-63
2023/08/09 00:25:21;;;;;;;5.00;2.93;;;;;;;;;;783096;178;919591;-63
2023/08/09 00:27:47;;;;;;;4.90;2.93;;;;;;;;;;790335;176;920829;-64
2023/08/09 00:30:14;;;;;;;4.90;3.20;;;;;;;;;;777123;180;918897;-64
2023/08/09 00:32:40;;;;;;;5.40;2.90;;;;;;;;;;779290;178;920602;-61
2023/08/09 00:35:06;;;;;;;5.73;2.23;;;;;;;;;;778405;178;921230;-63
2023/08/09 00:37:32;;;;;;;6.22;2.33;;;;;;;;;;783324;176;918711;-63
2023/08/09 00:39:58;;;;;;;5.00;2.43;;;;;;;;;;789320;176;853881;-61
2023/08/09 00:42:24;;;;;;;6.20;2.87;;;;;;;;;;782104;176;919757;-61
2023/08/09 00:44:49;;;;;;;3.23;2.20;;;;;;;;;;784295;176;918923;-61
2023/08/09 00:47:15;;;;;;;8.17;3.00;;;;;;;;;;787028;176;919850;-63
2023/08/09 00:49:41;;;;;;;4.73;2.60;;;;;;;;;;785251;176;917611;-60
2023/08/09 00:52:07;;;;;;;7.53;3.10;;;;;;;;;;784354;176;839636;-62
2023/08/09 00:54:34;;;;;;;10.52;3.00;;;;;;;;;;786967;176;823892;-63
2023/08/09 00:56:59;;;;;;;4.23;2.63;;;;;;;;;;772653;179;920355;-63
2023/08/09 00:59:25;;;;;;;5.27;2.93;;;;;;;;;;771959;176;917343;-63
2023/08/09 01:01:51;;;;;;;5.90;2.43;;;;;;;;;;782623;176;916285;-63
2023/08/09 01:04:17;;;;;;;5.73;2.97;;;;;;;;;;789078;176;938930;-63
2023/08/09 01:06:43;;;;;;;6.03;2.40;;;;;;;;;;781263;176;918851;-63
2023/08/09 01:09:09;;;;;;;4.40;2.50;;;;;;;;;;781437;177;918463;-61
2023/08/09 01:11:36;;;;;;;3.20;2.30;;;;;;;;;;793087;176;918203;-63
2023/08/09 01:14:02;;;;;;;3.80;2.67;;;;;;;;;;780583;176;919067;-61
2023/08/09 01:16:28;;;;;;;4.53;3.00;;;;;;;;;;782402;177;919177;-64
2023/08/09 01:18:54;;;;;;;7.60;2.87;;;;;;;;;;782730;176;919529;-63
2023/08/09 01:21:20;;;;;;;4.23;2.50;;;;;;;;;;782863;176;866868;-63
2023/08/09 01:23:46;;;;;;;4.53;2.30;;;;;;;;;;779965;176;919585;-61
2023/08/09 01:26:11;;;;;;;5.87;3.50;;;;;;;;;;783929;176;919471;-63
2023/08/09 01:28:37;;;;;;;3.93;2.40;;;;;;;;;;785828;176;918811;-60
2023/08/09 01:31:03;;;;;;;4.85;2.60;;;;;;;;;;781359;176;921698;-64
2023/08/09 01:33:29;;;;;;;5.47;2.07;;;;;;;;;;782319;176;922421;-63
2023/08/09 01:35:55;;;;;;;5.77;2.40;;;;;;;;;;787801;178;908304;-61
2023/08/09 01:38:22;;;;;;;4.50;2.73;;;;;;;;;;785370;176;920469;-61
2023/08/09 01:40:48;;;;;;;5.53;2.80;;;;;;;;;;786250;176;817859;-63
2023/08/09 01:43:14;;;;;;;3.87;2.50;;;;;;;;;;787962;174;923447;-61
2023/08/09 01:45:40;;;;;;;5.30;2.57;;;;;;;;;;790809;176;916284;-61
2023/08/09 01:48:07;;;;;;;4.57;2.43;;;;;;;;;;779768;176;850792;-61
2023/08/09 01:50:32;;;;;;;5.55;2.62;;;;;;;;;;780280;176;897752;-61
2023/08/09 01:52:58;;;;;;;4.10;2.63;;;;;;;;;;791483;176;913600;-61
2023/08/09 01:55:25;;;;;;;6.93;2.70;;;;;;;;;;786169;176;842946;-64
2023/08/09 01:57:49;;;;;;;4.07;2.60;;;;;;;;;;784939;176;920621;-63
2023/08/09 02:00:18;;;;;;;6.50;2.30;;;;;;;;;;786314;176;902701;-61
2023/08/09 02:02:42;;;;;;;3.80;2.00;;;;;;;;;;780785;176;921639;-61
2023/08/09 02:05:08;;;;;;;4.57;2.33;;;;;;;;;;781257;176;917770;-63
2023/08/09 02:07:34;;;;;;;5.63;2.80;;;;;;;;;;786667;176;1021444;-64
2023/08/09 02:10:00;;;;;;;4.37;3.03;;;;;;;;;;782766;176;1024002;-64
2023/08/09 02:12:26;;;;;;;7.93;2.40;;;;;;;;;;776109;178;918229;-63
2023/08/09 02:14:52;;;;;;;3.63;2.47;;;;;;;;;;778010;179;921955;-60
2023/08/09 02:17:18;;;;;;;4.90;2.60;;;;;;;;;;782254;176;955674;-61
2023/08/09 02:19:44;;;;;;;4.60;2.62;;;;;;;;;;784954;176;920991;-60
2023/08/09 02:22:09;;;;;;;4.90;3.37;;;;;;;;;;781955;178;918602;-61
2023/08/09 02:24:35;;;;;;;4.60;2.20;;;;;;;;;;786963;176;919530;-61
2023/08/09 02:27:01;;;;;;;3.85;2.60;;;;;;;;;;781742;176;921242;-60
2023/08/09 02:29:27;;;;;;;8.27;2.57;;;;;;;;;;781880;176;921661;-61
2023/08/09 02:31:53;;;;;;;3.77;2.60;;;;;;;;;;787406;177;818639;-59
2023/08/09 02:34:19;;;;;;;5.70;2.85;;;;;;;;;;782301;176;916920;-61
2023/08/09 02:36:44;;;;;;;4.50;2.80;;;;;;;;;;780153;176;916718;-63
2023/08/09 02:39:10;;;;;;;3.23;2.37;;;;;;;;;;781729;176;819033;-62
2023/08/09 02:41:37;;;;;;;5.13;2.60;;;;;;;;;;786660;176;917688;-61
2023/08/09 02:44:02;;;;;;;4.20;2.60;;;;;;;;;;781366;178;919906;-63
2023/08/09 02:46:28;;;;;;;4.27;2.60;;;;;;;;;;784078;176;918650;-61
2023/08/09 02:48:54;;;;;;;4.80;2.80;;;;;;;;;;792219;176;816446;-61
2023/08/09 02:51:19;;;;;;;4.60;2.80;;;;;;;;;;780708;176;919588;-60
2023/08/09 02:53:51;;;;;;;8.03;2.87;;;;;;;;;;782935;176;821927;-63
2023/08/09 02:56:17;;;;;;;7.10;2.73;;;;;;;;;;791643;175;918949;-61
2023/08/09 02:58:43;;;;;;;7.18;2.53;;;;;;;;;;788610;176;918611;-61
2023/08/09 03:01:09;;;;;;;5.00;4.37;;;;;;;;;;776763;176;932922;-60
2023/08/09 03:03:35;;;;;;;21.93;4.27;;;;;;;;;;772338;180;918092;-61
2023/08/09 03:06:00;;;;;;;3.57;2.80;;;;;;;;;;778244;179;922040;-62
2023/08/09 03:08:26;;;;;;;8.40;2.60;;;;;;;;;;772970;179;920053;-60
2023/08/09 03:10:52;;;;;;;3.37;2.20;;;;;;;;;;771756;179;922424;-63
2023/08/09 03:13:18;;;;;;;7.00;2.47;;;;;;;;;;789005;177;915539;-64
2023/08/09 03:15:44;;;;;;;4.10;2.27;;;;;;;;;;782219;176;913007;-61
2023/08/09 03:18:10;;;;;;;3.97;2.53;;;;;;;;;;785100;176;936895;-61
2023/08/09 03:20:35;;;;;;;3.50;2.57;;;;;;;;;;780310;176;919231;-61
2023/08/09 03:23:03;;;;;;;3.90;2.60;;;;;;;;;;771636;179;919418;-61
2023/08/09 03:25:27;;;;;;;4.40;2.67;;;;;;;;;;775531;176;916576;-63
2023/08/09 03:27:53;;;;;;;6.60;3.33;;;;;;;;;;783005;176;897810;-63
2023/08/09 03:30:19;;;;;;;4.70;2.43;;;;;;;;;;787058;176;816137;-60
2023/08/09 03:32:45;;;;;;;17.40;2.97;;;;;;;;;;781512;177;816772;-60
2023/08/09 03:35:11;;;;;;;5.90;2.40;;;;;;;;;;782483;176;924226;-59
2023/08/09 03:37:36;;;;;;;5.23;2.70;;;;;;;;;;784349;177;918861;-64
2023/08/09 03:40:04;;;;;;;5.37;2.97;;;;;;;;;;783629;176;920375;-61
2023/08/09 03:42:28;;;;;;;11.43;2.70;;;;;;;;;;785499;176;918644;-62
2023/08/09 03:44:55;;;;;;;8.55;2.75;;;;;;;;;;786933;176;918797;-64
2023/08/09 03:47:21;;;;;;;6.07;2.40;;;;;;;;;;790152;176;756772;-63
2023/08/09 03:49:47;;;;;;;5.10;2.70;;;;;;;;;;772480;180;923437;-63
2023/08/09 03:52:12;;;;;;;4.50;2.73;;;;;;;;;;775191;176;918254;-63
2023/08/09 03:54:38;;;;;;;4.00;2.80;;;;;;;;;;787170;176;915687;-64
2023/08/09 03:57:06;;;;;;;4.90;2.60;;;;;;;;;;777437;176;921684;-61
2023/08/09 03:59:30;;;;;;;4.40;2.83;;;;;;;;;;778597;179;947163;-64
2023/08/09 04:01:56;;;;;;;5.77;3.20;;;;;;;;;;788891;176;918847;-63
2023/08/09 04:04:23;;;;;;;3.80;2.30;;;;;;;;;;781738;178;920774;-62
2023/08/09 04:06:48;;;;;;;11.02;4.30;;;;;;;;;;780896;176;925051;-60
2023/08/09 04:09:14;;;;;;;3.80;2.70;;;;;;;;;;790141;176;919956;-63
2023/08/09 04:11:39;;;;;;;4.67;2.53;;;;;;;;;;785549;176;918368;-63
2023/08/09 04:14:05;;;;;;;4.40;2.30;;;;;;;;;;785316;176;926003;-64
2023/08/09 04:16:31;;;;;;;5.20;2.87;;;;;;;;;;783001;176;918733;-63
2023/08/09 04:18:57;;;;;;;5.73;2.87;;;;;;;;;;784996;176;919007;-63
2023/08/09 04:21:24;;;;;;;3.87;2.87;;;;;;;;;;780683;176;899939;-60
2023/08/09 04:23:49;;;;;;;5.15;2.83;;;;;;;;;;781752;176;918687;-61
2023/08/09 04:26:15;;;;;;;5.63;3.07;;;;;;;;;;790742;176;943713;-63
2023/08/09 04:28:40;;;;;;;4.10;3.07;;;;;;;;;;787395;176;922126;-61
2023/08/09 04:31:06;;;;;;;3.90;2.63;;;;;;;;;;784793;176;922100;-61
2023/08/09 04:33:33;;;;;;;5.17;3.03;;;;;;;;;;787944;176;919700;-61
2023/08/09 04:35:58;;;;;;;5.57;2.90;;;;;;;;;;781288;176;913282;-60
2023/08/09 04:38:24;;;;;;;3.93;2.60;;;;;;;;;;778968;176;918985;-59
2023/08/09 04:40:50;;;;;;;6.73;3.00;;;;;;;;;;781750;176;917227;-61
2023/08/09 04:43:17;;;;;;;6.77;3.07;;;;;;;;;;787063;176;920844;-62
2023/08/09 04:45:42;;;;;;;4.90;3.10;;;;;;;;;;785173;176;816183;-61
2023/08/09 04:48:08;;;;;;;4.43;2.83;;;;;;;;;;777322;176;918865;-63
2023/08/09 04:50:34;;;;;;;4.80;3.20;;;;;;;;;;784264;176;916875;-61
2023/08/09 04:53:00;;;;;;;4.97;3.20;;;;;;;;;;772401;179;897890;-60
2023/08/09 04:55:25;;;;;;;3.83;3.07;;;;;;;;;;780929;176;875924;-63
2023/08/09 04:57:51;;;;;;;5.15;2.58;;;;;;;;;;787331;176;918942;-63
2023/08/09 05:00:17;;;;;;;7.40;2.93;;;;;;;;;;782392;176;919623;-61
2023/08/09 05:02:43;;;;;;;3.97;2.80;;;;;;;;;;784371;176;918377;-61
2023/08/09 05:05:09;;;;;;;8.57;2.57;;;;;;;;;;778288;173;918231;-62
2023/08/09 05:07:35;;;;;;;4.93;3.13;;;;;;;;;;777349;180;914352;-60
2023/08/09 05:10:01;;;;;;;4.00;3.00;;;;;;;;;;770698;179;919359;-63
2023/08/09 05:12:26;;;;;;;4.63;2.73;;;;;;;;;;779991;176;916038;-62
2023/08/09 05:14:52;;;;;;;5.90;3.47;;;;;;;;;;790768;176;916303;-61
2023/08/09 05:17:18;;;;;;;7.07;4.53;;;;;;;;;;783497;176;918325;-62
2023/08/09 05:19:44;;;;;;;8.07;3.17;;;;;;;;;;784199;176;918092;-62
2023/08/09 05:22:10;;;;;;;7.70;3.03;;;;;;;;;;789532;178;921850;-62
2023/08/09 05:24:36;;;;;;;4.47;3.00;;;;;;;;;;785521;176;912861;-61
2023/08/09 05:27:02;;;;;;;5.67;2.70;;;;;;;;;;786064;176;917581;-65
2023/08/09 05:29:28;;;;;;;4.97;2.58;;;;;;;;;;788288;176;921739;-64
2023/08/09 05:31:54;;;;;;;4.77;2.30;;;;;;;;;;785706;176;918441;-65
2023/08/09 05:34:20;;;;;;;6.40;3.53;;;;;;;;;;779011;176;919205;-61
2023/08/09 05:36:46;;;;;;;4.50;2.60;;;;;;;;;;782859;176;917673;-62
2023/08/09 05:39:12;;;;;;;3.73;2.67;;;;;;;;;;788108;176;817668;-61
2023/08/09 05:41:37;;;;;;;5.70;3.10;;;;;;;;;;781261;176;820750;-61
2023/08/09 05:44:03;;;;;;;3.67;2.12;;;;;;;;;;780775;178;919402;-63
2023/08/09 05:46:29;;;;;;;7.20;2.50;;;;;;;;;;788258;176;919667;-62
2023/08/09 05:48:55;;;;;;;4.00;2.30;;;;;;;;;;775491;178;940708;-62
2023/08/09 05:51:21;;;;;;;3.93;2.70;;;;;;;;;;781559;176;916994;-63
2023/08/09 05:53:47;;;;;;;5.10;2.60;;;;;;;;;;782314;177;916300;-62
2023/08/09 05:56:13;;;;;;;4.30;2.57;;;;;;;;;;781637;176;917770;-62
2023/08/09 05:58:38;;;;;;;5.00;2.10;;;;;;;;;;773838;180;919363;-63
2023/08/09 06:01:07;;;;;;;5.10;2.57;;;;;;;;;;781856;176;922198;-64
2023/08/09 06:03:30;;;;;;;3.83;2.33;;;;;;;;;;775730;178;918518;-63
2023/08/09 06:05:57;;;;;;;4.27;1.80;;;;;;;;;;772039;179;860071;-61
2023/08/09 06:08:22;;;;;;;3.43;2.00;;;;;;;;;;772128;179;920577;-62
2023/08/09 06:10:48;;;;;;;4.87;2.00;;;;;;;;;;774719;179;919581;-64
2023/08/09 06:13:14;;;;;;;4.00;2.37;;;;;;;;;;782559;176;714330;-62
2023/08/09 06:15:40;;;;;;;3.17;1.98;;;;;;;;;;782656;176;953278;-63
2023/08/09 06:18:05;;;;;;;4.80;2.57;;;;;;;;;;785272;176;936670;-63
2023/08/09 06:20:31;;;;;;;5.80;2.53;;;;;;;;;;784361;176;827703;-62
2023/08/09 06:22:57;;;;;;;6.00;2.00;;;;;;;;;;784126;176;919018;-64
2023/08/09 06:25:23;;;;;;;4.70;2.13;;;;;;;;;;783188;176;919382;-63
2023/08/09 06:27:50;;;;;;;4.33;2.47;;;;;;;;;;783116;176;918680;-63
2023/08/09 06:30:15;;;;;;;3.00;1.90;;;;;;;;;;773544;176;906134;-66
2023/08/09 06:32:40;;;;;;;4.07;1.90;;;;;;;;;;783827;176;935892;-63
2023/08/09 06:35:09;;;;;;;5.90;2.53;;;;;;;;;;790532;176;922127;-62
2023/08/09 06:37:33;;;;;;;4.40;2.30;;;;;;;;;;785080;176;912579;-64
2023/08/09 06:39:58;;;;;;;4.23;2.10;;;;;;;;;;781787;178;1021730;-65
2023/08/09 06:42:24;;;;;;;3.40;2.17;;;;;;;;;;783445;178;919481;-64
2023/08/09 06:44:50;;;;;;;2.87;1.77;;;;;;;;;;784446;176;917829;-62
2023/08/09 06:47:16;;;;;;;3.50;2.00;;;;;;;;;;782033;176;921485;-61
2023/08/09 06:49:42;;;;;;;4.00;1.90;;;;;;;;;;788996;176;923300;-65
2023/08/09 06:52:08;;;;;;;4.40;2.23;;;;;;;;;;777420;176;919116;-65
2023/08/09 06:54:33;;;;;;;4.50;2.10;;;;;;;;;;775734;180;922477;-64
2023/08/09 06:56:59;;;;;;;3.67;1.93;;;;;;;;;;768630;179;922642;-65
2023/08/09 06:59:25;;;;;;;3.83;2.43;;;;;;;;;;774198;179;818571;-65
2023/08/09 07:01:51;;;;;;;3.70;1.83;;;;;;;;;;774904;176;926401;-65
2023/08/09 07:04:17;;;;;;;3.47;2.20;;;;;;;;;;782603;176;825698;-64
2023/08/09 07:06:43;;;;;;;5.00;2.00;;;;;;;;;;785671;176;910828;-63
2023/08/09 07:09:11;;;;;;;4.20;2.37;;;;;;;;;;780035;176;926321;-63
2023/08/09 07:11:34;;;;;;;4.03;2.40;;;;;;;;;;781222;176;921436;-66
2023/08/09 07:14:00;;;;;;;3.23;1.70;;;;;;;;;;786055;178;872445;-66
2023/08/09 07:16:26;;;;;;;4.83;2.23;;;;;;;;;;783001;176;918946;-63
2023/08/09 07:18:52;;;;;;;4.10;2.00;;;;;;;;;;780687;176;920383;-63
2023/08/09 07:21:18;;;;;;;4.05;1.83;;;;;;;;;;776931;176;1021473;-65
2023/08/09 07:23:43;;;;;;;4.10;1.90;;;;;;;;;;786336;178;918880;-65
2023/08/09 07:26:09;;;;;;;4.80;2.37;;;;;;;;;;770796;180;1024426;-65
2023/08/09 07:28:35;;;;;;;3.83;2.10;;;;;;;;;;777756;176;921302;-64
2023/08/09 07:31:01;;;;;;;3.13;1.90;;;;;;;;;;785669;176;918100;-64
2023/08/09 07:33:27;;;;;;;3.53;1.90;;;;;;;;;;781705;176;918635;-63
2023/08/09 07:35:53;;;;;;;3.27;1.90;;;;;;;;;;782251;176;920015;-64
2023/08/09 07:41:15;;;;;;;3.03;1.90;;;;;;;;;;696755;186;655514;-81
2023/08/09 07:43:41;;;;;;;4.13;2.80;;;;;;;;;;778913;180;749880;-83
2023/08/09 07:46:07;;;;;;;4.20;1.80;;;;;;;;;;773060;177;643046;-84
2023/08/09 07:48:33;;;;;;;5.30;2.13;;;;;;;;;;773724;178;646445;-83
2023/08/09 07:50:59;;;;;;;3.40;1.70;;;;;;;;;;777145;178;698254;-83
2023/08/09 07:53:25;;;;;;;2.90;1.70;;;;;;;;;;774222;178;810020;-82
2023/08/09 07:55:51;;;;;;;7.50;1.97;;;;;;;;;;774660;178;816141;-82
2023/08/09 07:58:16;;;;;;;4.20;1.97;;;;;;;;;;773561;178;632514;-85
2023/08/09 08:00:42;;;;;;;4.57;2.10;;;;;;;;;;776950;178;624371;-83
2023/08/09 08:03:09;;;;;;;5.07;2.27;;;;;;;;;;773800;177;650648;-82
2023/08/09 08:05:34;;;;;;;5.33;2.30;;;;;;;;;;773263;178;652715;-82
2023/08/09 08:08:00;;;;;;;3.03;2.20;;;;;;;;;;776235;178;644705;-82
2023/08/09 08:10:26;;;;;;;5.93;2.40;;;;;;;;;;772452;178;645293;-83
2023/08/09 08:12:52;;;;;;;4.70;2.60;;;;;;;;;;770907;178;732195;-83
2023/08/09 08:15:18;;;;;;;3.57;2.37;;;;;;;;;;777163;180;624272;-85
2023/08/09 08:17:46;;;;;;;12.93;3.30;;;;;;;;;;773543;178;666070;-83
2023/08/09 08:20:14;;;;;;;2.80;1.80;;;;;;;;;;773351;179;649690;-84
2023/08/09 08:22:36;;;;;;;4.63;2.00;;;;;;;;;;771253;178;836734;-83
2023/08/09 08:25:04;;;;;;;4.70;2.37;;;;;;;;;;777994;177;645777;-84
2023/08/09 08:27:28;;;;;;;3.87;2.10;;;;;;;;;;773735;178;646743;-82
2023/08/09 08:29:54;;;;;;;4.70;2.30;;;;;;;;;;772244;178;710067;-83
2023/08/09 08:32:20;;;;;;;3.57;2.17;;;;;;;;;;776175;178;633583;-84
2023/08/09 08:34:45;;;;;;;3.50;1.90;;;;;;;;;;776182;181;646848;-83
2023/08/09 08:37:12;;;;;;;6.07;2.10;;;;;;;;;;777806;178;626142;-82
2023/08/09 08:39:37;;;;;;;3.70;2.00;;;;;;;;;;774575;178;961447;-83
2023/08/09 08:42:03;;;;;;;3.50;2.07;;;;;;;;;;772478;178;628706;-83
2023/08/09 08:44:29;;;;;;;5.30;2.30;;;;;;;;;;771638;178;665542;-83
2023/08/09 08:46:55;;;;;;;3.67;2.43;;;;;;;;;;772208;179;679485;-82
2023/08/09 08:49:21;;;;;;;3.57;2.20;;;;;;;;;;776077;181;715282;-83
2023/08/09 08:51:47;;;;;;;5.40;3.00;;;;;;;;;;772513;177;654027;-82
2023/08/09 08:54:13;;;;;;;5.50;3.10;;;;;;;;;;770712;177;687512;-84
2023/08/09 08:56:39;;;;;;;4.33;2.17;;;;;;;;;;778631;178;700843;-83
2023/08/09 08:59:05;;;;;;;4.13;2.40;;;;;;;;;;776124;178;635647;-82
2023/08/09 09:01:31;;;;;;;4.53;2.60;;;;;;;;;;773326;177;636788;-83
2023/08/09 09:03:56;;;;;;;7.57;2.93;;;;;;;;;;777037;178;674646;-84
2023/08/09 09:06:22;;;;;;;5.63;3.00;;;;;;;;;;775056;178;636109;-83
2023/08/09 09:08:48;;;;;;;5.27;2.70;;;;;;;;;;774908;178;713180;-81
2023/08/09 09:11:14;;;;;;;5.97;2.70;;;;;;;;;;771473;181;646656;-83
2023/08/09 09:13:43;;;;;;;7.60;2.30;;;;;;;;;;761838;179;803830;-82
2023/08/09 09:16:09;;;;;;;3.87;2.67;;;;;;;;;;734253;190;637200;-82
2023/08/09 09:18:34;;;;;;;6.20;3.57;;;;;;;;;;736119;190;634692;-83
2023/08/09 09:21:00;;;;;;;5.67;3.40;;;;;;;;;;737031;191;761130;-83
2023/08/09 09:23:28;;;;;;;7.73;3.77;;;;;;;;;;735350;187;637625;-83
2023/08/09 09:25:59;;;;;;;5.23;3.13;;;;;;;;;;735136;186;631332;-85
2023/08/09 09:28:25;;;;;;;9.13;3.97;;;;;;;;;;733266;191;643950;-83
2023/08/09 09:30:56;;;;;;;5.90;3.43;;;;;;;;;;734869;187;633897;-85
2023/08/09 09:33:22;;;;;;;5.07;3.60;;;;;;;;;;731762;191;663251;-84
2023/08/09 09:35:49;;;;;;;9.10;4.37;;;;;;;;;;732475;191;672007;-82
2023/08/09 09:38:15;;;;;;;11.63;3.83;;;;;;;;;;738582;188;625575;-84
2023/08/09 09:40:41;;;;;;;8.27;3.90;;;;;;;;;;734539;191;643987;-84
2023/08/09 09:43:07;;;;;;;6.27;4.13;;;;;;;;;;733862;189;812042;-85
2023/08/09 09:45:32;;;;;;;6.67;4.17;;;;;;;;;;734298;191;641590;-83
2023/08/09 09:47:58;;;;;;;7.17;3.87;;;;;;;;;;738234;189;625008;-84
2023/08/09 09:50:24;;;;;;;5.60;3.73;;;;;;;;;;735533;187;632814;-83
2023/08/09 09:52:50;;;;;;;8.67;3.80;;;;;;;;;;734028;186;635336;-84
2023/08/09 09:55:16;;;;;;;6.07;3.90;;;;;;;;;;737891;188;661565;-83
2023/08/09 09:57:42;;;;;;;5.60;3.80;;;;;;;;;;733836;189;636727;-82
2023/08/09 10:00:08;;;;;;;5.90;3.70;;;;;;;;;;725501;188;1277473;-83
2023/08/09 10:02:37;;;;;;;11.50;4.77;;;;;;;;;;729192;191;1494482;-82
2023/08/09 10:05:03;;;;;;;5.70;3.90;;;;;;;;;;729219;188;2189319;-82
2023/08/09 10:07:30;;;;;;;6.60;3.77;;;;;;;;;;726745;188;1645134;-82
2023/08/09 10:09:56;;;;;;;8.90;4.27;;;;;;;;;;730616;187;805475;-83
2023/08/09 10:12:22;;;;;;;6.83;4.03;;;;;;;;;;736030;189;732178;-83
2023/08/09 10:14:48;;;;;;;6.10;4.60;;;;;;;;;;733807;187;718714;-84
2023/08/09 10:17:14;;;;;;;6.23;3.90;;;;;;;;;;735697;190;651688;-83
2023/08/09 10:19:40;;;;;;;3.73;3.07;;;;;;;;;;734886;189;993184;-83
2023/08/09 10:22:06;;;;;;;7.70;4.00;;;;;;;;;;734277;187;628746;-83
2023/08/09 10:24:32;;;;;;;7.90;4.57;;;;;;;;;;734662;191;645183;-83
2023/08/09 10:27:01;;;;;;;4.87;3.80;;;;;;;;;;734529;191;749760;-83
2023/08/09 10:29:24;;;;;;;5.37;4.37;;;;;;;;;;736979;189;1059340;-83
2023/08/09 10:31:51;;;;;;;7.87;4.13;;;;;;;;;;731858;182;620930;-85
2023/08/09 10:34:16;;;;;;;5.00;3.43;;;;;;;;;;732809;189;633896;-83
2023/08/09 10:36:43;;;;;;;5.93;3.53;;;;;;;;;;729225;191;861043;-83
2023/08/09 10:39:09;;;;;;;6.03;4.13;;;;;;;;;;731372;188;642708;-83
2023/08/09 10:41:35;;;;;;;10.60;5.93;;;;;;;;;;732179;191;636024;-85
2023/08/09 10:44:01;;;;;;;6.50;4.00;;;;;;;;;;735723;191;624073;-83
2023/08/09 10:46:27;;;;;;;6.53;4.40;;;;;;;;;;732515;189;948283;-84
2023/08/09 10:48:54;;;;;;;8.93;4.60;;;;;;;;;;733583;191;640571;-83
2023/08/09 10:51:20;;;;;;;5.20;4.00;;;;;;;;;;732994;191;637241;-83
2023/08/09 10:53:57;;;;;;;6.50;4.20;;;;;;;;;;737423;191;648115;-83
2023/08/09 10:56:28;;;;;;;5.90;3.63;;;;;;;;;;733436;186;639180;-83
2023/08/09 10:58:53;;;;;;;4.20;3.07;;;;;;;;;;734884;189;631882;-85
2023/08/09 11:01:19;;;;;;;6.77;3.60;;;;;;;;;;732334;191;634736;-83
2023/08/09 11:03:45;;;;;;;5.70;3.00;;;;;;;;;;736803;191;822657;-84
2023/08/09 11:06:12;;;;;;;3.87;2.70;;;;;;;;;;731903;191;711737;-84
2023/08/09 11:08:37;;;;;;;4.70;3.00;;;;;;;;;;735159;191;638534;-84
2023/08/09 11:11:03;;;;;;;6.80;3.33;;;;;;;;;;737801;188;612258;-84
2023/08/09 11:13:31;;;;;;;4.43;3.30;;;;;;;;;;731401;189;674827;-84
2023/08/09 11:15:54;;;;;;;5.37;3.47;;;;;;;;;;732791;189;714761;-86
2023/08/09 11:18:20;;;;;;;3.47;2.70;;;;;;;;;;733588;190;657920;-84
2023/08/09 11:20:46;;;;;;;6.27;3.50;;;;;;;;;;734230;190;692864;-83
2023/08/09 11:23:13;;;;;;;4.10;2.70;;;;;;;;;;733930;187;666713;-85
2023/08/09 11:25:38;;;;;;;5.83;2.87;;;;;;;;;;729967;187;708702;-85
2023/08/09 11:28:04;;;;;;;6.33;2.80;;;;;;;;;;737861;190;711994;-85
2023/08/09 11:30:31;;;;;;;5.60;2.97;;;;;;;;;;734985;186;659956;-82
2023/08/09 11:32:56;;;;;;;7.07;3.40;;;;;;;;;;735128;189;669541;-84
2023/08/09 11:35:25;;;;;;;4.32;2.30;;;;;;;;;;737659;188;770164;-85
2023/08/09 11:37:51;;;;;;;4.23;2.73;;;;;;;;;;734121;188;655812;-82
2023/08/09 11:40:20;;;;;;;4.13;2.63;;;;;;;;;;733284;191;630491;-83
2023/08/09 11:42:43;;;;;;;4.47;3.10;;;;;;;;;;732936;186;708760;-84
2023/08/09 11:45:09;;;;;;;5.10;2.90;;;;;;;;;;734608;187;995663;-85
2023/08/09 11:47:35;;;;;;;3.77;2.93;;;;;;;;;;733337;191;680145;-83
2023/08/09 11:50:02;;;;;;;5.80;3.10;;;;;;;;;;731470;190;688510;-82
2023/08/09 11:52:28;;;;;;;4.40;3.27;;;;;;;;;;736119;191;649646;-82
2023/08/09 11:54:55;;;;;;;6.12;2.78;;;;;;;;;;731758;189;1015004;-82
2023/08/09 11:57:20;;;;;;;4.50;3.27;;;;;;;;;;733149;191;658821;-83
2023/08/09 11:59:46;;;;;;;4.40;2.80;;;;;;;;;;739278;186;694537;-82
2023/08/09 12:02:11;;;;;;;4.37;3.00;;;;;;;;;;734193;188;632926;-82
2023/08/09 12:04:38;;;;;;;3.83;2.67;;;;;;;;;;734498;189;652014;-83
2023/08/09 12:07:05;;;;;;;4.80;2.40;;;;;;;;;;730813;189;629689;-82
2023/08/09 12:09:39;;;;;;;4.20;2.53;;;;;;;;;;736572;191;627240;-81
2023/08/09 12:12:06;;;;;;;5.33;3.30;;;;;;;;;;732037;187;629393;-83
2023/08/09 12:14:33;;;;;;;5.20;3.10;;;;;;;;;;733212;191;653685;-84
2023/08/09 12:16:59;;;;;;;4.33;2.43;;;;;;;;;;744910;185;628561;-82
2023/08/09 12:19:25;;;;;;;3.57;2.40;;;;;;;;;;741799;191;622922;-84
2023/08/09 12:21:50;;;;;;;6.03;3.10;;;;;;;;;;735114;191;637670;-85
2023/08/09 12:24:16;;;;;;;4.50;2.77;;;;;;;;;;733706;187;801008;-84
2023/08/09 12:26:42;;;;;;;4.57;2.50;;;;;;;;;;735492;190;704911;-86
2023/08/09 12:29:11;;;;;;;5.20;2.50;;;;;;;;;;733472;187;656836;-85
2023/08/09 12:31:37;;;;;;;4.33;2.67;;;;;;;;;;733909;190;649737;-84
2023/08/09 12:34:03;;;;;;;3.60;2.60;;;;;;;;;;733619;190;650230;-81
2023/08/09 12:36:29;;;;;;;3.47;2.50;;;;;;;;;;741152;190;629761;-83
2023/08/09 12:38:54;;;;;;;4.80;2.90;;;;;;;;;;735439;187;625482;-82
2023/08/09 12:41:20;;;;;;;5.80;2.83;;;;;;;;;;732145;190;633990;-81
2023/08/09 12:43:46;;;;;;;6.13;2.63;;;;;;;;;;737029;190;761693;-84
2023/08/09 12:46:12;;;;;;;5.90;3.10;;;;;;;;;;733420;191;632838;-82
2023/08/09 12:48:38;;;;;;;3.70;2.47;;;;;;;;;;735739;191;629721;-83
2023/08/09 12:51:04;;;;;;;5.03;3.20;;;;;;;;;;735552;191;640357;-82
2023/08/09 12:53:30;;;;;;;6.57;2.80;;;;;;;;;;732691;191;630382;-83
2023/08/09 12:55:56;;;;;;;5.30;3.00;;;;;;;;;;735066;191;662615;-83
2023/08/09 12:58:22;;;;;;;4.30;2.40;;;;;;;;;;738986;191;654213;-84
2023/08/09 13:00:47;;;;;;;3.93;2.60;;;;;;;;;;734819;191;630415;-83
2023/08/09 13:03:14;;;;;;;3.40;2.30;;;;;;;;;;734719;188;619725;-83
2023/08/09 13:05:40;;;;;;;5.80;2.60;;;;;;;;;;734525;191;622615;-83
2023/08/09 13:08:05;;;;;;;3.43;2.30;;;;;;;;;;736122;191;700364;-81
2023/08/09 13:10:31;;;;;;;4.40;2.53;;;;;;;;;;731968;191;769798;-82
2023/08/09 13:12:57;;;;;;;3.25;2.05;;;;;;;;;;733377;191;747120;-81
2023/08/09 13:15:23;;;;;;;10.53;2.57;;;;;;;;;;736239;186;625574;-84
2023/08/09 13:17:49;;;;;;;4.30;2.40;;;;;;;;;;732646;191;636466;-82
2023/08/09 13:20:15;;;;;;;4.40;2.30;;;;;;;;;;731386;191;765308;-83
2023/08/09 13:22:40;;;;;;;6.70;2.30;;;;;;;;;;738221;191;656288;-81
2023/08/09 13:25:08;;;;;;;6.47;3.20;;;;;;;;;;733627;188;630214;-81
2023/08/09 13:27:32;;;;;;;5.00;2.37;;;;;;;;;;729865;189;631705;-81
2023/08/09 13:29:58;;;;;;;6.60;2.93;;;;;;;;;;739254;187;1639564;-81
2023/08/09 13:32:24;;;;;;;3.80;2.20;;;;;;;;;;736809;189;643407;-81
2023/08/09 13:34:50;;;;;;;4.37;2.50;;;;;;;;;;732279;191;937637;-83
2023/08/09 13:37:16;;;;;;;3.47;2.27;;;;;;;;;;734072;187;644967;-82
2023/08/09 13:39:42;;;;;;;3.77;2.30;;;;;;;;;;738611;189;634212;-81
2023/08/09 13:42:08;;;;;;;3.87;2.83;;;;;;;;;;736174;190;634310;-80
2023/08/09 13:44:34;;;;;;;8.10;2.97;;;;;;;;;;730707;190;696981;-83
2023/08/09 13:47:00;;;;;;;3.63;2.33;;;;;;;;;;735741;190;817817;-83
2023/08/09 13:49:26;;;;;;;4.67;2.23;;;;;;;;;;736424;187;614109;-82
2023/08/09 13:51:51;;;;;;;4.00;2.30;;;;;;;;;;735171;188;892084;-83
2023/08/09 13:54:17;;;;;;;3.50;2.17;;;;;;;;;;734559;190;712962;-82
2023/08/09 13:56:43;;;;;;;8.73;2.53;;;;;;;;;;739020;190;630326;-81
2023/08/09 13:59:09;;;;;;;3.63;2.13;;;;;;;;;;733778;188;640472;-82
2023/08/09 14:01:35;;;;;;;3.40;2.63;;;;;;;;;;733252;187;632971;-82
2023/08/09 14:04:01;;;;;;;4.07;2.13;;;;;;;;;;738891;191;650194;-83
2023/08/09 14:06:27;;;;;;;3.50;2.30;;;;;;;;;;733601;191;631904;-81
2023/08/09 14:08:52;;;;;;;4.07;2.37;;;;;;;;;;730444;191;815606;-85
2023/08/09 14:11:18;;;;;;;3.17;2.20;;;;;;;;;;736428;191;630740;-83
2023/08/09 14:13:44;;;;;;;4.70;2.50;;;;;;;;;;736302;191;630913;-81
2023/08/09 14:16:10;;;;;;;4.30;2.50;;;;;;;;;;730735;191;781796;-83
2023/08/09 14:18:36;;;;;;;4.40;2.20;;;;;;;;;;731181;187;943649;-83
2023/08/09 14:21:02;;;;;;;8.10;2.50;;;;;;;;;;724226;191;665679;-81
2023/08/09 14:23:28;;;;;;;3.93;2.30;;;;;;;;;;705129;193;688124;-82